Time;durP1;ratioP1;P1;durP2;ratioP2;P2;SDS_P1;SDS_P2;PMS_P1;PMS_P2;Temp;Humidity;BMP_temperature;BMP_pressure;BME280_temperature;BME280_humidity;BME280_pressure;Samples;Min_cycle;Max_cycle;Signal;HPM_P1;HPM_P2
2022/12/14 00:00:40;;;;;;;0.00;0.00;;;;;;;-5.70;100.00;99627.59;5070511;28;20178;-78
2022/12/14 00:03:06;;;;;;;0.77;0.77;;;;;;;-5.70;100.00;99624.94;5069754;28;20206;-78
2022/12/14 00:05:32;;;;;;;2.13;2.03;;;;;;;-5.73;100.00;99614.75;5069980;28;20439;-77
2022/12/14 00:07:57;;;;;;;0.00;0.00;;;;;;;-5.77;100.00;99618.91;5070085;28;20409;-77
2022/12/14 00:10:23;;;;;;;0.00;0.00;;;;;;;-5.74;100.00;99608.63;5070826;28;20175;-78
2022/12/14 00:12:48;;;;;;;0.87;0.87;;;;;;;-5.68;100.00;99609.56;5074075;28;20177;-78
2022/12/14 00:15:13;;;;;;;0.00;0.00;;;;;;;-5.72;100.00;99603.06;5073690;28;20212;-78
2022/12/14 00:17:38;;;;;;;0.00;0.00;;;;;;;-5.68;100.00;99594.41;5073673;28;20166;-77
2022/12/14 00:20:04;;;;;;;0.10;0.10;;;;;;;-5.65;100.00;99609.09;5073672;28;20170;-76
2022/12/14 00:22:30;;;;;;;0.03;0.03;;;;;;;-5.68;100.00;99601.56;5073487;28;20178;-77
2022/12/14 00:24:55;;;;;;;0.00;0.00;;;;;;;-5.66;100.00;99604.00;5073744;28;20182;-78
2022/12/14 00:27:20;;;;;;;1.53;1.30;;;;;;;-5.69;100.00;99597.28;5072864;28;20167;-77
2022/12/14 00:29:46;;;;;;;3.47;3.37;;;;;;;-5.75;100.00;99601.69;5073737;28;20175;-78
2022/12/14 00:32:11;;;;;;;1.30;1.23;;;;;;;-5.78;100.00;99594.16;5073522;28;20170;-77
2022/12/14 00:34:36;;;;;;;0.00;0.00;;;;;;;-5.85;100.00;99590.75;5073056;28;20219;-78
2022/12/14 00:37:02;;;;;;;0.10;0.10;;;;;;;-6.06;100.00;99594.75;5073361;28;20173;-78
2022/12/14 00:39:27;;;;;;;0.00;0.00;;;;;;;-5.90;100.00;99593.31;5073146;28;20171;-78
2022/12/14 00:41:52;;;;;;;0.10;0.10;;;;;;;-5.81;100.00;99591.94;5073162;28;20540;-79
2022/12/14 00:44:18;;;;;;;0.00;0.00;;;;;;;-6.15;100.00;99589.97;5072745;28;20230;-76
2022/12/14 00:46:43;;;;;;;0.00;0.00;;;;;;;-5.94;100.00;99586.81;5072996;28;20557;-78
2022/12/14 00:49:09;;;;;;;0.00;0.00;;;;;;;-5.83;100.00;99580.72;5073177;28;20178;-78
2022/12/14 00:51:34;;;;;;;0.00;0.00;;;;;;;-5.70;100.00;99577.06;5073376;28;20274;-77
2022/12/14 00:53:59;;;;;;;0.00;0.00;;;;;;;-5.58;100.00;99575.25;5072842;28;20187;-77
2022/12/14 00:56:25;;;;;;;0.00;0.00;;;;;;;-5.83;100.00;99566.59;5072842;28;20202;-78
2022/12/14 00:58:51;;;;;;;0.00;0.00;;;;;;;-5.73;100.00;99566.88;5072856;28;20182;-75
2022/12/14 01:01:17;;;;;;;7.23;1.20;;;;;;;-5.77;100.00;99563.06;5072815;28;20184;-77
2022/12/14 01:03:42;;;;;;;0.30;0.30;;;;;;;-5.75;100.00;99575.09;5072682;28;20480;-78
2022/12/14 01:06:20;;;;;;;3.60;1.90;;;;;;;-5.82;100.00;99579.66;5072810;28;20542;-78
2022/12/14 01:08:47;;;;;;;0.00;0.00;;;;;;;-5.79;100.00;99583.72;5073079;28;20249;-78
2022/12/14 01:11:13;;;;;;;1.43;1.33;;;;;;;-5.77;100.00;99568.38;5072601;28;20440;-77
2022/12/14 01:13:39;;;;;;;0.03;0.03;;;;;;;-5.78;100.00;99572.06;5072205;28;20901;-77
2022/12/14 01:16:10;;;;;;;0.13;0.13;;;;;;;-5.74;100.00;99575.88;5072866;28;20564;-76
2022/12/14 01:18:37;;;;;;;0.43;0.43;;;;;;;-5.71;100.00;99572.78;5072265;28;20512;-75
2022/12/14 01:21:14;;;;;;;0.40;0.40;;;;;;;-5.67;100.00;99576.59;5072724;28;20756;-78
2022/12/14 01:23:40;;;;;;;1.43;1.43;;;;;;;-5.61;100.00;99570.38;5072325;28;20459;-79
2022/12/14 01:26:06;;;;;;;0.00;0.00;;;;;;;-5.54;100.00;99571.06;5071758;28;20607;-76
2022/12/14 01:28:33;;;;;;;1.03;1.03;;;;;;;-5.47;99.91;99563.00;5072243;28;20427;-77
2022/12/14 01:31:03;;;;;;;15.60;14.63;;;;;;;-5.45;100.00;99559.06;5070822;28;20179;-76
2022/12/14 01:33:28;;;;;;;0.00;0.00;;;;;;;-5.40;98.86;99556.53;5070714;28;20444;-78
2022/12/14 01:35:53;;;;;;;0.33;0.33;;;;;;;-5.36;99.30;99556.88;5072033;28;20413;-76
2022/12/14 01:38:19;;;;;;;0.87;0.87;;;;;;;-5.34;97.89;99554.00;5072291;28;20175;-77
2022/12/14 01:40:44;;;;;;;0.00;0.00;;;;;;;-5.39;98.27;99552.81;5072041;28;20178;-76
2022/12/14 01:43:13;;;;;;;0.10;0.10;;;;;;;-5.34;98.07;99549.50;5072018;28;20206;-77
2022/12/14 01:45:40;;;;;;;1.97;1.80;;;;;;;-5.36;97.53;99550.75;5071720;28;20214;-77
2022/12/14 01:48:12;;;;;;;0.00;0.00;;;;;;;-5.35;96.96;99542.56;5071650;28;20760;-78
2022/12/14 01:50:42;;;;;;;0.00;0.00;;;;;;;-5.30;97.39;99541.84;5071654;28;20507;-76
2022/12/14 01:53:13;;;;;;;0.00;0.00;;;;;;;-5.39;97.22;99539.53;5071793;28;20809;-78
2022/12/14 01:55:45;;;;;;;0.00;0.00;;;;;;;-5.43;96.36;99537.56;5070263;28;20504;-76
2022/12/14 01:58:18;;;;;;;0.00;0.00;;;;;;;-5.43;96.85;99542.88;5070414;28;20424;-77
2022/12/14 02:00:43;;;;;;;0.00;0.00;;;;;;;-5.41;97.19;99538.94;5071571;28;20421;-76
2022/12/14 02:03:21;;;;;;;0.00;0.00;;;;;;;-5.55;96.38;99534.88;5071161;28;20795;-77
2022/12/14 02:05:54;;;;;;;0.10;0.10;;;;;;;-5.44;96.63;99536.75;5072010;28;20170;-78
2022/12/14 02:08:23;;;;;;;0.00;0.00;;;;;;;-5.33;96.04;99529.00;5071569;28;20429;-75
2022/12/14 02:10:50;;;;;;;0.00;0.00;;;;;;;-5.34;95.73;99527.41;5071354;28;20417;-77
2022/12/14 02:13:24;;;;;;;0.10;0.10;;;;;;;-5.32;95.88;99520.78;5071360;28;20769;-75
2022/12/14 02:15:50;;;;;;;2.17;2.00;;;;;;;-5.34;95.46;99520.22;5071270;28;20420;-77
2022/12/14 02:18:24;;;;;;;0.30;0.30;;;;;;;-5.32;94.85;99518.13;5071330;28;20413;-76
2022/12/14 02:21:21;;;;;;;3.10;2.27;;;;;;;-5.40;93.63;99516.59;5071332;28;20440;-80
2022/12/14 02:24:20;;;;;;;0.83;0.83;;;;;;;-5.40;94.26;99515.81;5071222;28;20491;-76
2022/12/14 02:27:04;;;;;;;1.63;1.53;;;;;;;-5.45;93.31;99513.03;5071620;28;20405;-78
2022/12/14 02:29:57;;;;;;;7.20;3.50;;;;;;;-5.46;93.89;99514.06;5069815;28;20424;-78
2022/12/14 02:32:35;;;;;;;0.20;0.20;;;;;;;-5.55;93.22;99518.09;5069775;28;20503;-76
2022/12/14 02:35:16;;;;;;;0.10;0.10;;;;;;;-5.73;93.97;99509.16;5070504;28;20429;-77
2022/12/14 02:37:51;;;;;;;0.23;0.23;;;;;;;-6.10;95.90;99508.50;5070970;28;20416;-76
2022/12/14 02:40:28;;;;;;;0.00;0.00;;;;;;;-6.25;97.05;99513.41;5070865;28;20768;-76
2022/12/14 02:42:59;;;;;;;0.00;0.00;;;;;;;-6.31;97.04;99506.34;5070449;28;20500;-76
2022/12/14 02:45:40;;;;;;;0.10;0.10;;;;;;;-6.44;98.58;99495.91;5070928;28;20443;-76
2022/12/14 02:48:12;;;;;;;0.30;0.30;;;;;;;-6.54;99.64;99493.75;5070980;28;20408;-77
2022/12/14 02:50:48;;;;;;;0.43;0.43;;;;;;;-6.45;100.00;99483.66;5070814;28;20433;-76
2022/12/14 02:53:23;;;;;;;0.53;0.53;;;;;;;-6.37;100.00;99480.66;5070777;28;20423;-77
2022/12/14 02:55:51;;;;;;;0.10;0.10;;;;;;;-6.25;100.00;99476.22;5070795;28;20407;-75
2022/12/14 02:58:16;;;;;;;0.00;0.00;;;;;;;-6.22;100.00;99470.47;5070627;28;20450;-76
2022/12/14 03:00:43;;;;;;;1.13;1.07;;;;;;;-6.10;100.00;99476.59;5070674;28;20765;-78
2022/12/14 03:03:08;;;;;;;0.00;0.00;;;;;;;-5.93;100.00;99467.97;5070459;28;20856;-77
2022/12/14 03:05:34;;;;;;;0.00;0.00;;;;;;;-5.95;100.00;99462.06;5070627;28;20420;-77
2022/12/14 03:08:05;;;;;;;0.00;0.00;;;;;;;-5.96;99.95;99457.78;5070836;28;20173;-78
2022/12/14 03:11:01;;;;;;;0.00;0.00;;;;;;;-5.99;99.61;99459.06;5070668;28;20170;-77
2022/12/14 03:13:50;;;;;;;0.10;0.10;;;;;;;-6.03;99.90;99458.72;5064024;28;20433;-78
2022/12/14 03:16:21;;;;;;;0.10;0.10;;;;;;;-6.20;99.88;99446.31;5070832;28;20409;-77
2022/12/14 03:18:52;;;;;;;0.03;0.03;;;;;;;-6.19;99.86;99454.06;5070612;28;20771;-78
2022/12/14 03:21:24;;;;;;;0.00;0.00;;;;;;;-6.43;100.00;99455.81;5070561;28;20416;-76
2022/12/14 03:23:52;;;;;;;0.00;0.00;;;;;;;-6.51;100.00;99445.53;5068927;28;20464;-77
2022/12/14 03:26:31;;;;;;;0.00;0.00;;;;;;;-6.57;100.00;99450.91;5070482;28;20509;-77
2022/12/14 03:29:05;;;;;;;0.00;0.00;;;;;;;-6.52;100.00;99441.22;5070696;28;20416;-77
2022/12/14 03:31:36;;;;;;;0.00;0.00;;;;;;;-6.41;100.00;99429.81;5070546;28;20462;-76
2022/12/14 03:34:04;;;;;;;0.00;0.00;;;;;;;-6.52;100.00;99419.16;5070119;28;20893;-76
2022/12/14 03:36:39;;;;;;;0.00;0.00;;;;;;;-6.45;100.00;99430.50;5070320;28;20508;-77
2022/12/14 03:39:09;;;;;;;0.10;0.10;;;;;;;-6.40;100.00;99422.66;5070473;28;20428;-77
2022/12/14 03:41:50;;;;;;;0.13;0.13;;;;;;;-6.35;100.00;99420.16;5070385;28;20714;-77
2022/12/14 03:44:30;;;;;;;0.00;0.00;;;;;;;-6.27;100.00;99411.84;5068794;28;20468;-78
2022/12/14 03:47:15;;;;;;;0.23;0.23;;;;;;;-6.29;100.00;99419.25;5073261;28;20892;-77
2022/12/14 03:49:40;;;;;;;0.00;0.00;;;;;;;-6.22;100.00;99412.00;5074131;28;20491;-78
2022/12/14 03:52:38;;;;;;;0.20;0.20;;;;;;;-6.12;100.00;99408.75;5073508;28;20519;-76
2022/12/14 03:55:26;;;;;;;0.10;0.10;;;;;;;-5.98;100.00;99406.72;5056783;28;20200;-76
2022/12/14 03:58:24;;;;;;;0.00;0.00;;;;;;;-5.96;100.00;99412.59;5051950;28;20462;-75
2022/12/14 04:01:05;;;;;;;0.00;0.00;;;;;;;-6.07;100.00;99404.41;5057590;28;20436;-76
2022/12/14 04:03:59;;;;;;;0.00;0.00;;;;;;;-6.34;100.00;99397.88;5073556;28;20488;-76
2022/12/14 04:06:43;;;;;;;1.97;1.90;;;;;;;-6.32;100.00;99395.78;5054442;28;20421;-77
2022/12/14 04:18:55;;;;;;;0.00;0.00;;;;;;;-6.35;100.00;99378.47;5074096;28;20420;-76
2022/12/14 04:21:57;;;;;;;0.00;0.00;;;;;;;-6.72;100.00;99369.78;5073753;28;20463;-75
2022/12/14 04:27:52;;;;;;;0.00;0.00;;;;;;;-6.54;100.00;99371.56;5055195;28;20454;-77
2022/12/14 04:30:17;;;;;;;0.00;0.00;;;;;;;-6.40;99.98;99374.84;5073312;28;20965;-75
2022/12/14 04:32:53;;;;;;;2.57;2.47;;;;;;;-6.43;100.00;99376.13;5072932;28;20421;-77
2022/12/14 04:35:36;;;;;;;0.00;0.00;;;;;;;-6.79;99.25;99377.03;5072169;28;20532;-78
2022/12/14 04:38:08;;;;;;;0.10;0.10;;;;;;;-6.52;100.00;99381.97;5073531;28;20413;-77
2022/12/14 04:40:41;;;;;;;0.77;0.77;;;;;;;-6.48;99.80;99378.66;5072936;28;20755;-77
2022/12/14 04:43:13;;;;;;;0.87;0.87;;;;;;;-6.61;98.46;99369.03;5072764;28;20509;-77
2022/12/14 04:45:47;;;;;;;2.17;2.07;;;;;;;-6.68;98.31;99370.94;5072838;28;20606;-76
2022/12/14 04:48:30;;;;;;;0.33;0.33;;;;;;;-6.96;97.75;99374.19;5073070;28;21000;-78
2022/12/14 04:51:08;;;;;;;0.50;0.50;;;;;;;-7.15;97.55;99366.47;5072556;28;20857;-78
2022/12/14 04:53:37;;;;;;;0.10;0.10;;;;;;;-7.15;97.86;99369.94;5072602;28;20855;-76
2022/12/14 04:56:08;;;;;;;1.10;1.10;;;;;;;-7.28;98.65;99365.59;5071150;28;20486;-77
2022/12/14 04:58:35;;;;;;;0.00;0.00;;;;;;;-7.43;99.45;99367.81;5072773;28;20448;-77
2022/12/14 05:01:19;;;;;;;0.20;0.20;;;;;;;-7.25;100.00;99359.03;5071237;28;20959;-77
2022/12/14 05:04:10;;;;;;;0.20;0.20;;;;;;;-7.16;100.00;99349.75;5072286;28;20689;-79
2022/12/14 05:06:42;;;;;;;1.50;1.50;;;;;;;-7.24;100.00;99345.53;5072575;28;20466;-78
2022/12/14 05:09:22;;;;;;;0.00;0.00;;;;;;;-7.08;100.00;99341.50;5072445;28;20413;-75
2022/12/14 05:12:06;;;;;;;0.00;0.00;;;;;;;-6.94;100.00;99348.25;5072552;28;20425;-77
2022/12/14 05:14:41;;;;;;;2.13;0.47;;;;;;;-6.86;100.00;99346.28;5071901;28;21003;-78
2022/12/14 05:17:07;;;;;;;3.10;1.60;;;;;;;-7.01;100.00;99333.44;5072640;28;20448;-77
2022/12/14 05:19:32;;;;;;;0.00;0.00;;;;;;;-7.19;99.94;99331.63;5072624;28;20456;-77
2022/12/14 05:22:03;;;;;;;0.00;0.00;;;;;;;-7.28;99.95;99336.41;5072305;28;20275;-77
2022/12/14 05:24:28;;;;;;;2.80;2.70;;;;;;;-7.37;99.15;99340.41;5072174;28;20854;-78
2022/12/14 05:26:54;;;;;;;0.00;0.00;;;;;;;-7.31;99.33;99331.56;5072240;28;20460;-79
2022/12/14 05:29:19;;;;;;;15.20;2.03;;;;;;;-7.42;98.73;99334.13;5072290;28;20557;-78
2022/12/14 05:31:44;;;;;;;1.03;1.03;;;;;;;-7.59;98.95;99329.44;5072086;28;20179;-77
2022/12/14 05:34:10;;;;;;;0.63;0.63;;;;;;;-7.73;98.44;99327.16;5071916;28;20178;-78
2022/12/14 05:36:36;;;;;;;0.00;0.00;;;;;;;-7.79;98.56;99323.53;5071994;28;20170;-75
2022/12/14 05:39:01;;;;;;;0.13;0.13;;;;;;;-7.89;99.08;99320.59;5071987;28;20175;-75
2022/12/14 05:41:26;;;;;;;1.07;0.97;;;;;;;-7.95;98.64;99316.97;5072034;28;20191;-74
2022/12/14 05:43:51;;;;;;;0.00;0.00;;;;;;;-8.03;99.66;99322.53;5074878;28;20511;-75
2022/12/14 05:46:17;;;;;;;0.73;0.73;;;;;;;-7.95;100.00;99308.22;5070716;28;20177;-74
2022/12/14 05:48:42;;;;;;;0.00;0.00;;;;;;;-7.92;100.00;99310.44;5071674;28;20171;-74
2022/12/14 05:51:10;;;;;;;0.10;0.10;;;;;;;-7.79;100.00;99299.69;5071065;28;20307;-75
2022/12/14 05:53:36;;;;;;;1.13;1.13;;;;;;;-7.80;100.00;99301.53;5069984;28;20327;-75
2022/12/14 05:56:04;;;;;;;0.10;0.10;;;;;;;-7.71;100.00;99293.25;5071401;28;21005;-74
2022/12/14 05:58:30;;;;;;;0.20;0.20;;;;;;;-7.76;100.00;99290.47;5071531;28;20175;-74
2022/12/14 06:00:59;;;;;;;0.00;0.00;;;;;;;-7.78;100.00;99300.50;5071370;28;20417;-74
2022/12/14 06:03:25;;;;;;;0.53;0.53;;;;;;;-7.89;100.00;99286.94;5070908;28;20735;-74
2022/12/14 06:05:50;;;;;;;0.47;0.47;;;;;;;-8.00;100.00;99286.84;5071212;28;20421;-75
2022/12/14 06:08:15;;;;;;;1.93;1.83;;;;;;;-8.04;100.00;99286.47;5070523;28;20178;-76
2022/12/14 06:10:41;;;;;;;0.00;0.00;;;;;;;-7.82;100.00;99286.84;5071199;28;20181;-74
2022/12/14 06:13:06;;;;;;;0.00;0.00;;;;;;;-7.59;100.00;99278.25;5070991;28;20542;-74
2022/12/14 06:15:31;;;;;;;0.07;0.07;;;;;;;-7.41;100.00;99278.22;5070986;28;20178;-75
2022/12/14 06:17:57;;;;;;;4.87;2.83;;;;;;;-7.26;100.00;99275.16;5071016;28;20568;-75
2022/12/14 06:20:22;;;;;;;5.10;2.73;;;;;;;-7.02;100.00;99268.13;5071057;28;20174;-74
2022/12/14 06:22:47;;;;;;;0.00;0.00;;;;;;;-6.95;100.00;99269.63;5070696;28;20189;-75
2022/12/14 06:25:12;;;;;;;0.40;0.40;;;;;;;-6.92;100.00;99257.75;5070936;28;20171;-75
2022/12/14 06:27:38;;;;;;;4.57;4.23;;;;;;;-6.93;100.00;99253.50;5070919;28;20175;-75
2022/12/14 06:30:03;;;;;;;0.00;0.00;;;;;;;-6.94;100.00;99243.91;5071170;28;20171;-75
2022/12/14 06:32:29;;;;;;;0.43;0.43;;;;;;;-7.07;100.00;99241.44;5070756;28;20181;-74
2022/12/14 06:34:54;;;;;;;19.07;6.63;;;;;;;-7.10;100.00;99241.88;5069264;28;20504;-75
2022/12/14 06:37:19;;;;;;;0.00;0.00;;;;;;;-7.27;100.00;99244.38;5070908;28;20253;-74
2022/12/14 06:39:45;;;;;;;1.13;1.13;;;;;;;-7.32;100.00;99239.75;5068999;28;20178;-75
2022/12/14 06:42:10;;;;;;;0.00;0.00;;;;;;;-7.36;100.00;99237.78;5070692;28;20181;-76
2022/12/14 06:44:36;;;;;;;0.00;0.00;;;;;;;-7.34;100.00;99235.72;5070417;28;20195;-75
2022/12/14 06:47:02;;;;;;;0.00;0.00;;;;;;;-7.42;100.00;99228.03;5070500;28;20170;-75
2022/12/14 06:49:27;;;;;;;0.00;0.00;;;;;;;-7.38;100.00;99224.72;5070737;28;20170;-75
2022/12/14 06:51:52;;;;;;;0.00;0.00;;;;;;;-7.15;100.00;99229.31;5070134;28;20235;-76
2022/12/14 06:54:18;;;;;;;0.00;0.00;;;;;;;-7.50;100.00;99223.88;5070356;28;20269;-75
2022/12/14 06:56:45;;;;;;;0.00;0.00;;;;;;;-7.25;100.00;99227.19;5070623;28;20174;-75
2022/12/14 06:59:11;;;;;;;0.00;0.00;;;;;;;-7.14;100.00;99224.81;5070801;28;20182;-75
2022/12/14 07:01:37;;;;;;;0.00;0.00;;;;;;;-7.28;100.00;99225.00;5070541;28;20420;-76
2022/12/14 07:04:04;;;;;;;0.90;0.90;;;;;;;-7.70;100.00;99229.41;5070286;28;20840;-76
2022/12/14 07:06:35;;;;;;;0.00;0.00;;;;;;;-7.88;100.00;99229.44;5071553;28;20178;-79
2022/12/14 07:09:01;;;;;;;0.00;0.00;;;;;;;-7.95;100.00;99218.13;5076077;28;20442;-77
2022/12/14 07:11:27;;;;;;;0.00;0.00;;;;;;;-7.86;100.00;99214.13;5074199;28;20514;-78
2022/12/14 07:13:53;;;;;;;0.00;0.00;;;;;;;-8.10;100.00;99219.31;5070969;28;20178;-79
2022/12/14 07:16:24;;;;;;;0.00;0.00;;;;;;;-8.21;100.00;99224.50;5070394;28;20432;-79
2022/12/14 07:18:50;;;;;;;0.83;0.83;;;;;;;-8.40;100.00;99219.19;5070736;28;20273;-80
2022/12/14 07:21:18;;;;;;;0.00;0.00;;;;;;;-8.29;100.00;99220.28;5074902;28;20416;-79
2022/12/14 07:23:44;;;;;;;0.00;0.00;;;;;;;-8.14;100.00;99227.88;5074794;28;20800;-79
2022/12/14 07:26:15;;;;;;;0.10;0.10;;;;;;;-7.88;100.00;99214.34;5075083;28;20447;-79
2022/12/14 07:28:43;;;;;;;0.00;0.00;;;;;;;-7.63;100.00;99222.22;5073611;28;20540;-79
2022/12/14 07:31:20;;;;;;;0.00;0.00;;;;;;;-7.50;100.00;99211.44;5074358;28;20514;-79
2022/12/14 07:33:46;;;;;;;1.13;1.13;;;;;;;-7.38;100.00;99208.78;5074435;28;20470;-78
2022/12/14 07:36:14;;;;;;;0.03;0.03;;;;;;;-7.46;100.00;99206.47;5073099;28;20429;-79
2022/12/14 07:38:41;;;;;;;0.00;0.00;;;;;;;-7.41;100.00;99201.28;5074651;28;20193;-80
2022/12/14 07:41:12;;;;;;;0.35;0.35;;;;;;;-7.39;100.00;99203.72;5073521;28;20769;-79
2022/12/14 07:43:38;;;;;;;3.20;3.07;;;;;;;-7.44;100.00;99190.34;5073895;28;20198;-73
2022/12/14 07:46:07;;;;;;;0.47;0.47;;;;;;;-7.58;100.00;99187.88;5074099;28;20417;-77
2022/12/14 07:48:33;;;;;;;0.00;0.00;;;;;;;-7.67;100.00;99199.00;5073949;28;20461;-77
2022/12/14 07:51:02;;;;;;;0.00;0.00;;;;;;;-7.80;100.00;99200.81;5073988;28;20444;-81
2022/12/14 07:53:27;;;;;;;0.00;0.00;;;;;;;-7.66;100.00;99190.03;5074850;28;20174;-78
2022/12/14 07:55:53;;;;;;;1.83;1.73;;;;;;;-7.53;100.00;99198.59;5074666;28;20905;-84
2022/12/14 07:58:18;;;;;;;1.43;1.33;;;;;;;-7.59;100.00;99191.56;5076186;28;20642;-79
2022/12/14 08:00:43;;;;;;;0.60;0.60;;;;;;;-7.54;100.00;99196.16;5076697;28;20178;-89
2022/12/14 08:03:08;;;;;;;0.00;0.00;;;;;;;-7.49;100.00;99191.03;5075220;28;20221;-84
2022/12/14 08:05:37;;;;;;;2.00;1.60;;;;;;;-7.73;100.00;99198.06;5073585;28;20179;-85
2022/12/14 08:08:03;;;;;;;0.00;0.00;;;;;;;-7.85;100.00;99198.00;5075105;28;20610;-85
2022/12/14 08:10:28;;;;;;;0.50;0.50;;;;;;;-7.60;100.00;99189.13;5075642;28;20737;-88
2022/12/14 08:12:53;;;;;;;0.00;0.00;;;;;;;-7.35;100.00;99192.47;5075134;28;20240;-85
2022/12/14 08:15:18;;;;;;;0.00;0.00;;;;;;;-7.31;100.00;99192.81;5074944;28;20178;-84
2022/12/14 08:17:44;;;;;;;0.10;0.10;;;;;;;-7.25;100.00;99187.38;5075370;28;20327;-86
2022/12/14 08:20:09;;;;;;;0.00;0.00;;;;;;;-7.33;100.00;99186.91;5075461;28;20170;-86
2022/12/14 08:22:35;;;;;;;0.00;0.00;;;;;;;-7.11;100.00;99195.16;5074759;28;20181;-83
2022/12/14 08:25:00;;;;;;;0.00;0.00;;;;;;;-6.87;100.00;99191.50;5074538;28;20210;-86
2022/12/14 08:27:25;;;;;;;0.00;0.00;;;;;;;-7.02;100.00;99191.16;5074285;28;20186;-88
2022/12/14 08:29:51;;;;;;;0.00;0.00;;;;;;;-7.22;100.00;99189.63;5074518;28;20170;-86
2022/12/14 08:32:16;;;;;;;0.47;0.47;;;;;;;-7.02;100.00;99191.97;5072306;28;20186;-86
2022/12/14 08:34:41;;;;;;;0.00;0.00;;;;;;;-6.88;100.00;99197.06;5074221;28;20178;-84
2022/12/14 08:37:06;;;;;;;0.00;0.00;;;;;;;-6.90;100.00;99182.16;5074546;28;20178;-86
2022/12/14 08:39:32;;;;;;;0.60;0.60;;;;;;;-6.75;100.00;99184.38;5074486;28;20830;-88
2022/12/14 08:41:57;;;;;;;0.00;0.00;;;;;;;-7.18;100.00;99186.50;5073103;28;20209;-88
2022/12/14 08:44:22;;;;;;;6.07;5.50;;;;;;;-7.22;100.00;99194.91;5073761;28;20198;-86
2022/12/14 08:46:47;;;;;;;0.00;0.00;;;;;;;-7.01;100.00;99187.44;5074251;28;20170;-88
2022/12/14 08:49:13;;;;;;;0.57;0.57;;;;;;;-6.88;100.00;99184.59;5074192;28;20170;-87
2022/12/14 08:51:38;;;;;;;0.00;0.00;;;;;;;-6.68;100.00;99193.03;5073307;28;20203;-71
2022/12/14 08:54:03;;;;;;;0.00;0.00;;;;;;;-6.79;100.00;99183.22;5073255;28;20668;-85
2022/12/14 08:56:29;;;;;;;0.00;0.00;;;;;;;-6.77;100.00;99189.13;5074263;28;20171;-88
2022/12/14 08:58:55;;;;;;;0.00;0.00;;;;;;;-6.81;100.00;99190.59;5074402;28;20220;-88
2022/12/14 09:01:24;;;;;;;0.00;0.00;;;;;;;-6.95;100.00;99189.19;5072677;28;20262;-87
2022/12/14 09:03:49;;;;;;;0.00;0.00;;;;;;;-6.98;100.00;99187.00;5073310;28;20551;-83
2022/12/14 09:06:20;;;;;;;0.07;0.07;;;;;;;-6.74;100.00;99183.34;5073801;28;20500;-88
2022/12/14 09:08:46;;;;;;;0.30;0.30;;;;;;;-6.77;100.00;99177.69;5072331;28;20162;-88
2022/12/14 09:11:13;;;;;;;0.00;0.00;;;;;;;-6.98;100.00;99187.81;5073442;28;20409;-87
2022/12/14 09:13:39;;;;;;;5.30;5.10;;;;;;;-6.96;100.00;99190.22;5072780;28;20182;-85
2022/12/14 09:16:16;;;;;;;1.20;1.20;;;;;;;-7.02;100.00;99191.97;5072876;28;20818;-88
2022/12/14 09:18:42;;;;;;;0.00;0.00;;;;;;;-6.77;100.00;99183.00;5071714;28;20171;-86
2022/12/14 09:21:08;;;;;;;0.37;0.37;;;;;;;-6.81;100.00;99173.84;5071621;28;20425;-87
2022/12/14 09:23:34;;;;;;;0.03;0.03;;;;;;;-6.95;100.00;99176.72;5072417;28;20748;-87
2022/12/14 09:26:07;;;;;;;0.00;0.00;;;;;;;-6.86;100.00;99182.50;5071052;28;20504;-87
2022/12/14 09:28:36;;;;;;;0.00;0.00;;;;;;;-6.73;100.00;99177.00;5072672;28;20234;-87
2022/12/14 09:31:04;;;;;;;0.70;0.70;;;;;;;-6.71;100.00;99176.75;5072330;28;20512;-86
2022/12/14 09:33:30;;;;;;;0.47;0.47;;;;;;;-6.70;100.00;99176.53;5072089;28;20421;-84
2022/12/14 09:36:00;;;;;;;0.10;0.10;;;;;;;-6.65;100.00;99181.97;5072775;28;20434;-87
2022/12/14 09:38:26;;;;;;;2.23;2.13;;;;;;;-6.62;100.00;99186.81;5072526;28;20204;-84
2022/12/14 09:40:57;;;;;;;0.00;0.00;;;;;;;-6.51;100.00;99179.88;5070968;28;20433;-87
2022/12/14 09:43:40;;;;;;;0.63;0.63;;;;;;;-6.54;100.00;99174.22;5070923;28;20688;-86
2022/12/14 09:46:14;;;;;;;1.20;1.20;;;;;;;-6.57;100.00;99177.34;5072079;28;20420;-83
2022/12/14 09:48:41;;;;;;;1.50;1.50;;;;;;;-6.51;100.00;99182.53;5071047;28;20424;-88
2022/12/14 09:51:12;;;;;;;0.30;0.20;;;;;;;-6.32;100.00;99169.94;5070500;28;20443;-85
2022/12/14 09:53:40;;;;;;;0.00;0.00;;;;;;;-6.13;100.00;99159.97;5071996;28;20979;-87
2022/12/14 09:56:09;;;;;;;0.00;0.00;;;;;;;-6.05;100.00;99163.06;5069858;28;20428;-77
2022/12/14 09:58:35;;;;;;;0.00;0.00;;;;;;;-6.07;100.00;99164.34;5070955;28;20417;-78
2022/12/14 10:01:22;;;;;;;0.87;0.87;;;;;;;-6.16;100.00;99163.91;5070949;28;20972;-87
2022/12/14 10:04:07;;;;;;;1.00;1.00;;;;;;;-6.17;100.00;99164.94;5070167;28;21046;-86
2022/12/14 10:06:36;;;;;;;0.57;0.57;;;;;;;-6.11;100.00;99161.34;5072603;28;20417;-88
2022/12/14 10:09:15;;;;;;;1.13;1.03;;;;;;;-5.87;100.00;99166.56;5071840;28;20922;-86
2022/12/14 10:12:20;;;;;;;0.37;0.37;;;;;;;-5.87;100.00;99169.22;5072169;28;20423;-86
2022/12/14 10:14:57;;;;;;;0.00;0.00;;;;;;;-5.85;100.00;99167.94;5055981;28;20421;-81
2022/12/14 10:17:53;;;;;;;0.00;0.00;;;;;;;-5.98;100.00;99170.09;5069934;28;20459;-83
2022/12/14 10:20:34;;;;;;;6.57;5.77;;;;;;;-6.17;100.00;99153.50;5070928;28;20420;-76
2022/12/14 10:23:01;;;;;;;0.00;0.00;;;;;;;-6.17;100.00;99153.50;5070270;28;20925;-88
2022/12/14 10:25:29;;;;;;;0.00;0.00;;;;;;;-6.05;100.00;99157.75;5071101;28;20429;-81
2022/12/14 10:28:15;;;;;;;0.00;0.00;;;;;;;-5.90;100.00;99153.78;5070903;28;20416;-78
2022/12/14 10:30:41;;;;;;;0.00;0.00;;;;;;;-5.74;100.00;99155.66;5069639;28;20421;-78
2022/12/14 10:33:25;;;;;;;0.00;0.00;;;;;;;-5.62;100.00;99158.28;5070475;28;20888;-78
2022/12/14 10:36:02;;;;;;;3.73;3.60;;;;;;;-5.94;100.00;99161.41;5069244;28;20444;-79
2022/12/14 10:38:35;;;;;;;2.83;2.23;;;;;;;-5.90;100.00;99159.09;5070786;28;20754;-77
2022/12/14 10:41:32;;;;;;;0.00;0.00;;;;;;;-5.65;100.00;99158.75;5069264;28;20923;-78
2022/12/14 10:44:16;;;;;;;0.00;0.00;;;;;;;-5.90;100.00;99156.44;5069122;28;20577;-79
2022/12/14 10:46:44;;;;;;;0.00;0.00;;;;;;;-6.05;100.00;99154.28;5070480;28;20413;-78
2022/12/14 10:49:21;;;;;;;2.47;2.30;;;;;;;-5.96;100.00;99157.38;5069146;28;20430;-77
2022/12/14 10:52:02;;;;;;;1.70;1.70;;;;;;;-6.08;100.00;99157.41;5070589;28;20413;-78
2022/12/14 10:54:43;;;;;;;0.00;0.00;;;;;;;-6.13;100.00;99147.47;5069776;28;20425;-78
2022/12/14 10:57:11;;;;;;;0.10;0.10;;;;;;;-6.15;100.00;99146.91;5070357;28;20412;-78
2022/12/14 10:59:37;;;;;;;0.67;0.67;;;;;;;-6.08;100.00;99144.91;5070640;28;20424;-78
2022/12/14 11:02:02;;;;;;;1.60;1.60;;;;;;;-6.03;100.00;99139.72;5070301;28;20549;-78
2022/12/14 11:04:58;;;;;;;1.13;1.13;;;;;;;-5.91;100.00;99128.25;5069909;28;20472;-78
2022/12/14 11:07:48;;;;;;;1.80;1.80;;;;;;;-5.73;100.00;99126.16;5056995;28;20749;-77
2022/12/14 11:10:17;;;;;;;0.30;0.30;;;;;;;-5.62;100.00;99135.16;5070247;28;20449;-79
2022/12/14 11:12:53;;;;;;;0.30;0.30;;;;;;;-5.55;100.00;99122.50;5069922;28;20421;-77
2022/12/14 11:15:26;;;;;;;0.07;0.07;;;;;;;-5.48;100.00;99123.16;5070016;28;20424;-78
2022/12/14 11:18:21;;;;;;;1.30;1.30;;;;;;;-5.37;100.00;99126.78;5070370;28;20514;-77
2022/12/14 11:21:00;;;;;;;2.10;2.00;;;;;;;-5.10;100.00;99121.66;5070406;28;20419;-80
2022/12/14 11:23:35;;;;;;;3.50;1.07;;;;;;;-4.81;100.00;99119.72;5069516;28;20468;-77
2022/12/14 11:26:04;;;;;;;0.00;0.00;;;;;;;-4.64;100.00;99122.34;5070054;28;20413;-77
2022/12/14 11:28:32;;;;;;;0.20;0.20;;;;;;;-4.73;100.00;99113.97;5069972;28;20412;-77
2022/12/14 11:31:10;;;;;;;1.23;0.37;;;;;;;-4.63;100.00;99121.28;5070163;28;20413;-77
2022/12/14 11:33:50;;;;;;;0.47;0.47;;;;;;;-4.78;100.00;99112.03;5069693;28;20428;-77
2022/12/14 11:36:28;;;;;;;1.70;1.70;;;;;;;-4.73;100.00;99107.84;5068599;28;20781;-76
2022/12/14 11:38:58;;;;;;;0.00;0.00;;;;;;;-4.70;100.00;99107.34;5069710;28;20416;-80
2022/12/14 11:41:27;;;;;;;0.00;0.00;;;;;;;-4.62;100.00;99110.41;5068313;28;20433;-79
2022/12/14 11:44:08;;;;;;;0.00;0.00;;;;;;;-4.59;100.00;99109.13;5065654;28;20453;-80
2022/12/14 11:47:14;;;;;;;0.00;0.00;;;;;;;-4.53;100.00;99103.59;5067256;28;20908;-79
2022/12/14 11:49:39;;;;;;;0.00;0.00;;;;;;;-4.54;100.00;99103.84;5050062;28;21059;-77
2022/12/14 11:52:05;;;;;;;0.00;0.00;;;;;;;-4.46;100.00;99097.31;5049840;28;20450;-77
2022/12/14 11:54:40;;;;;;;0.47;0.47;;;;;;;-4.40;100.00;99097.09;5048140;28;20207;-78
2022/12/14 11:57:44;;;;;;;0.00;0.00;;;;;;;-4.18;100.00;99093.66;5049916;28;20653;-77